Time;durP1;ratioP1;P1;durP2;ratioP2;P2;SDS_P1;SDS_P2;PMS_P1;PMS_P2;Temp;Humidity;BMP_temperature;BMP_pressure;BME280_temperature;BME280_humidity;BME280_pressure;Samples;Min_cycle;Max_cycle;Signal;HPM_P1;HPM_P2
2023/01/06 00:00:04;;;;;;;10.38;6.05;;;;;;;9.82;87.37;100148.06;342430;28;1802;-73
2023/01/06 00:00:16;;;;;;;11.32;6.30;;;;;;;9.79;86.93;100140.34;342738;28;1674;-73
2023/01/06 00:00:28;;;;;;;10.40;6.50;;;;;;;9.79;86.99;100148.13;344242;28;1554;-73
2023/01/06 00:00:40;;;;;;;10.60;6.55;;;;;;;9.77;86.40;100140.38;344760;28;1032;-73
2023/01/06 00:01:00;;;;;;;10.30;5.93;;;;;;;9.63;86.64;100137.22;344761;28;1614;-73
2023/01/06 00:01:17;;;;;;;10.40;5.90;;;;;;;9.65;87.38;100139.78;344728;28;1066;-73
2023/01/06 00:01:30;;;;;;;10.27;6.20;;;;;;;9.69;87.89;100137.06;343372;28;1651;-73
2023/01/06 00:01:42;;;;;;;10.73;6.68;;;;;;;9.72;88.54;100142.22;343963;28;1267;-73
2023/01/06 00:01:54;;;;;;;12.32;6.80;;;;;;;9.79;88.50;100148.13;343525;28;1652;-73
2023/01/06 00:02:06;;;;;;;12.27;6.68;;;;;;;9.83;88.17;100139.38;344889;28;1110;-73
2023/01/06 00:02:18;;;;;;;10.15;6.22;;;;;;;9.88;88.25;100147.94;343953;28;1873;-73
2023/01/06 00:02:30;;;;;;;10.27;6.07;;;;;;;9.91;88.33;100140.06;344101;28;1934;-73
2023/01/06 00:02:44;;;;;;;11.75;6.32;;;;;;;9.95;88.43;100138.25;344812;28;1260;-73
2023/01/06 00:02:56;;;;;;;11.77;6.35;;;;;;;9.99;88.20;100135.56;344919;28;1282;-73
2023/01/06 00:03:09;;;;;;;11.48;6.10;;;;;;;10.05;88.41;100136.31;344005;28;2208;-73
2023/01/06 00:03:21;;;;;;;11.70;6.22;;;;;;;10.09;88.47;100135.34;344010;28;1747;-73
2023/01/06 00:03:33;;;;;;;10.05;6.03;;;;;;;10.11;88.60;100128.38;343514;28;1141;-73
2023/01/06 00:03:50;;;;;;;11.15;6.55;;;;;;;10.13;88.59;100137.00;343349;28;1237;-73
2023/01/06 00:04:03;;;;;;;14.20;7.20;;;;;;;10.14;88.18;100136.09;344703;28;1865;-73
2023/01/06 00:04:15;;;;;;;13.48;7.35;;;;;;;10.15;88.34;100141.25;345931;28;1460;-73
2023/01/06 00:04:27;;;;;;;10.38;6.75;;;;;;;10.14;88.42;100128.28;344148;28;1695;-73
2023/01/06 00:04:39;;;;;;;9.40;6.35;;;;;;;10.12;88.22;100135.28;345879;28;1127;-73
2023/01/06 00:04:51;;;;;;;9.07;6.03;;;;;;;10.15;88.59;100135.22;345991;28;1026;-73
2023/01/06 00:05:04;;;;;;;9.75;6.40;;;;;;;10.18;88.65;100135.13;345674;28;1520;-73
2023/01/06 00:05:16;;;;;;;10.80;6.88;;;;;;;10.21;88.50;100140.28;345648;28;1199;-73
2023/01/06 00:05:28;;;;;;;13.75;7.25;;;;;;;10.25;88.27;100131.50;346266;28;1069;-73
2023/01/06 00:05:40;;;;;;;13.73;6.85;;;;;;;10.27;88.14;100129.72;345622;28;1867;-73
2023/01/06 00:05:59;;;;;;;11.52;6.22;;;;;;;10.28;88.21;100126.25;346094;28;1229;-73
2023/01/06 00:06:12;;;;;;;12.82;6.40;;;;;;;10.29;87.86;100127.94;346531;28;1081;-73
2023/01/06 00:06:26;;;;;;;14.23;6.90;;;;;;;10.23;88.11;100128.09;345396;28;1741;-73
2023/01/06 00:06:38;;;;;;;14.40;7.00;;;;;;;10.22;88.75;100126.38;345704;28;1625;-73
2023/01/06 00:06:50;;;;;;;14.20;6.80;;;;;;;10.16;88.50;100131.72;346367;28;1058;-73
2023/01/06 00:07:02;;;;;;;12.63;6.80;;;;;;;10.15;88.85;100130.03;346028;28;1703;-73
2023/01/06 00:07:14;;;;;;;12.23;7.13;;;;;;;10.18;89.23;100129.94;345608;28;1614;-73
2023/01/06 00:07:26;;;;;;;11.90;7.05;;;;;;;10.20;88.63;100134.22;346232;28;2339;-73
2023/01/06 00:07:39;;;;;;;10.52;6.72;;;;;;;10.20;88.53;100125.56;345850;28;1822;-73
2023/01/06 00:07:51;;;;;;;10.90;6.93;;;;;;;10.11;88.58;100125.78;345714;28;1244;-73
2023/01/06 00:08:03;;;;;;;12.88;7.15;;;;;;;10.09;88.73;100127.56;346233;28;1009;-73
2023/01/06 00:08:15;;;;;;;15.32;7.38;;;;;;;10.09;88.56;100128.41;345590;28;1774;-73
2023/01/06 00:08:28;;;;;;;17.42;7.40;;;;;;;10.06;88.40;100130.22;344968;28;1055;-73
2023/01/06 00:08:40;;;;;;;15.48;7.03;;;;;;;9.99;88.86;100132.97;344745;28;1237;-73
2023/01/06 00:08:59;;;;;;;11.75;7.07;;;;;;;10.01;88.78;100122.53;344206;28;1610;-73
2023/01/06 00:09:12;;;;;;;13.07;7.70;;;;;;;9.95;89.06;100131.31;345219;28;1293;-73
2023/01/06 00:09:24;;;;;;;13.95;7.72;;;;;;;9.93;89.03;100130.50;346273;28;1575;-73
2023/01/06 00:09:37;;;;;;;13.68;7.55;;;;;;;9.90;88.87;100130.59;346356;28;1059;-73
2023/01/06 00:09:49;;;;;;;13.55;7.57;;;;;;;9.86;89.01;100128.94;346166;28;1190;-73
2023/01/06 00:10:04;;;;;;;13.35;7.78;;;;;;;9.85;89.38;100124.63;346060;28;1070;-73
2023/01/06 00:10:16;;;;;;;13.02;7.53;;;;;;;9.90;89.27;100124.50;345844;28;1485;-73
2023/01/06 00:10:28;;;;;;;14.35;7.15;;;;;;;9.89;89.28;100128.84;345811;28;1134;-73
2023/01/06 00:10:40;;;;;;;13.65;7.28;;;;;;;9.87;88.56;100130.63;344374;28;1277;-73
2023/01/06 00:10:52;;;;;;;14.32;7.47;;;;;;;9.80;88.22;100127.31;343373;28;1108;-73
2023/01/06 00:11:06;;;;;;;15.52;7.60;;;;;;;9.80;88.21;100129.09;343526;28;1175;-73
2023/01/06 00:11:18;;;;;;;16.45;7.68;;;;;;;9.77;88.30;100135.16;343937;28;1353;-73
2023/01/06 00:11:31;;;;;;;15.55;7.85;;;;;;;9.69;88.31;100125.84;344772;28;1050;-73
2023/01/06 00:11:43;;;;;;;14.05;7.85;;;;;;;9.54;88.04;100127.88;344619;28;1154;-73
2023/01/06 00:11:55;;;;;;;14.80;7.60;;;;;;;9.53;88.01;100131.34;343512;28;2189;-73
2023/01/06 00:12:07;;;;;;;16.35;7.50;;;;;;;9.56;88.26;100127.84;343555;28;1035;-73
2023/01/06 00:12:19;;;;;;;15.20;7.45;;;;;;;9.59;88.40;100136.41;344059;28;1162;-73
2023/01/06 00:12:31;;;;;;;13.38;7.43;;;;;;;9.65;88.53;100129.41;343341;28;1048;-73
2023/01/06 00:12:45;;;;;;;12.63;7.55;;;;;;;9.57;88.14;100126.97;342605;28;1258;-73
2023/01/06 00:12:57;;;;;;;13.43;7.70;;;;;;;9.56;88.13;100131.31;343405;28;1067;-73
2023/01/06 00:13:08;;;;;;;13.90;7.53;;;;;;;9.63;88.25;100128.56;343685;28;1060;-73
2023/01/06 00:13:21;;;;;;;14.30;7.53;;;;;;;9.60;88.10;100125.16;342747;28;1435;-73
2023/01/06 00:13:33;;;;;;;15.63;7.82;;;;;;;9.62;88.35;100125.13;342256;28;1315;-73
2023/01/06 00:13:45;;;;;;;15.98;8.20;;;;;;;9.64;89.12;100127.66;342184;28;1375;-73
2023/01/06 00:13:58;;;;;;;14.00;7.90;;;;;;;9.68;89.64;100124.13;342921;28;1283;-73
2023/01/06 00:14:10;;;;;;;13.23;7.55;;;;;;;9.73;89.44;100123.16;343527;28;1141;-73
2023/01/06 00:14:22;;;;;;;12.35;7.53;;;;;;;9.79;89.42;100129.94;343174;28;1288;-73
2023/01/06 00:14:34;;;;;;;12.07;7.80;;;;;;;9.82;89.87;100127.31;343229;28;1578;-73
2023/01/06 00:14:46;;;;;;;12.98;7.50;;;;;;;9.85;89.48;100127.22;345334;28;1032;-73
2023/01/06 00:14:58;;;;;;;12.85;7.40;;;;;;;9.90;89.71;100125.38;346397;28;1048;-73
2023/01/06 00:15:11;;;;;;;11.50;7.43;;;;;;;9.93;89.71;100129.66;346441;28;1122;-73
2023/01/06 00:15:23;;;;;;;11.32;7.18;;;;;;;9.97;89.63;100126.94;346290;28;1321;-73
2023/01/06 00:15:36;;;;;;;14.13;7.38;;;;;;;10.02;89.25;100125.97;346020;28;1255;-73
2023/01/06 00:15:51;;;;;;;13.98;6.97;;;;;;;10.06;89.29;100123.31;346290;28;1231;-73
2023/01/06 00:16:04;;;;;;;13.10;7.03;;;;;;;10.10;89.45;100126.66;346227;28;1032;-73
2023/01/06 00:16:20;;;;;;;14.05;7.22;;;;;;;10.14;89.28;100129.19;346275;28;1398;-73
2023/01/06 00:16:32;;;;;;;13.90;7.38;;;;;;;10.18;89.47;100129.94;345665;28;1659;-73
2023/01/06 00:16:44;;;;;;;12.57;7.38;;;;;;;10.20;89.22;100121.22;343642;28;1007;-73
2023/01/06 00:16:56;;;;;;;11.73;6.55;;;;;;;10.26;89.52;100117.66;343694;28;1288;-73
2023/01/06 00:17:08;;;;;;;12.05;6.40;;;;;;;10.29;89.02;100125.34;343905;28;1274;-73
2023/01/06 00:17:21;;;;;;;12.27;6.60;;;;;;;10.31;89.02;100126.19;344865;28;1342;-73
2023/01/06 00:17:33;;;;;;;10.35;6.57;;;;;;;10.34;89.23;100120.94;344728;28;1262;-73
2023/01/06 00:17:45;;;;;;;10.60;6.50;;;;;;;10.37;89.23;100126.06;344613;28;1049;-73
2023/01/06 00:17:57;;;;;;;13.10;6.68;;;;;;;10.41;88.93;100126.00;344771;28;1027;-73
2023/01/06 00:18:09;;;;;;;13.68;6.95;;;;;;;10.44;88.76;100125.91;343603;28;1938;-73
2023/01/06 00:18:21;;;;;;;12.63;6.95;;;;;;;10.47;88.94;100125.84;344345;28;1285;-73
2023/01/06 00:18:34;;;;;;;11.02;7.72;;;;;;;10.49;88.74;100118.84;344648;28;1043;-73
2023/01/06 00:18:46;;;;;;;11.73;8.40;;;;;;;10.26;89.40;100128.03;345167;28;1362;-73
2023/01/06 00:18:59;;;;;;;12.32;7.88;;;;;;;10.23;89.78;100122.06;346546;28;1054;-73
2023/01/06 00:19:13;;;;;;;11.25;7.13;;;;;;;10.24;90.12;100118.53;346091;28;935;-73
2023/01/06 00:19:25;;;;;;;11.25;7.13;;;;;;;10.20;90.45;100122.97;346142;28;1631;-73
2023/01/06 00:19:37;;;;;;;10.88;7.35;;;;;;;10.24;90.82;100124.63;346093;28;1088;-73
2023/01/06 00:19:50;;;;;;;10.40;7.03;;;;;;;10.33;90.79;100123.56;346333;28;1149;-73
2023/01/06 00:20:03;;;;;;;10.82;7.15;;;;;;;10.26;90.27;100122.84;346441;28;1059;-73
2023/01/06 00:20:15;;;;;;;11.23;8.27;;;;;;;10.22;90.23;100120.31;346183;28;1022;-73
2023/01/06 00:20:27;;;;;;;12.52;9.55;;;;;;;10.23;90.17;100122.91;344542;28;1195;-73
2023/01/06 00:20:39;;;;;;;12.93;9.80;;;;;;;10.19;90.36;100116.91;344997;28;1019;-73
2023/01/06 00:20:51;;;;;;;14.25;11.45;;;;;;;10.16;90.54;100118.72;344796;28;1023;-73
2023/01/06 00:21:04;;;;;;;14.27;12.32;;;;;;;10.09;90.80;100119.78;344860;28;1265;-73
2023/01/06 00:21:16;;;;;;;13.35;11.13;;;;;;;10.07;90.79;100116.34;344798;28;1050;-73
2023/01/06 00:21:29;;;;;;;11.50;8.77;;;;;;;10.00;91.01;100116.50;344902;28;1588;-73
2023/01/06 00:21:44;;;;;;;10.68;7.38;;;;;;;9.87;91.33;100115.06;343925;28;1683;-73
2023/01/06 00:21:55;;;;;;;10.98;7.38;;;;;;;9.90;92.03;100115.00;344761;28;1139;-73
2023/01/06 00:22:08;;;;;;;10.27;7.40;;;;;;;9.92;91.80;100113.22;344787;28;1349;-73
2023/01/06 00:22:19;;;;;;;10.75;7.25;;;;;;;9.99;91.83;100114.78;344244;28;1794;-73
2023/01/06 00:22:31;;;;;;;10.65;6.68;;;;;;;10.03;91.29;100119.91;345757;28;1246;-73
2023/01/06 00:22:43;;;;;;;10.15;6.50;;;;;;;9.96;90.86;100114.88;346286;28;1062;-73
2023/01/06 00:22:55;;;;;;;10.20;6.70;;;;;;;9.90;90.84;100117.59;346382;28;1178;-73
2023/01/06 00:23:07;;;;;;;9.95;6.97;;;;;;;9.90;90.54;100114.13;346187;28;1336;-73
2023/01/06 00:23:19;;;;;;;9.15;7.10;;;;;;;9.92;90.14;100113.22;346276;28;1253;-73
2023/01/06 00:23:33;;;;;;;9.30;6.75;;;;;;;9.99;89.98;100117.38;345727;28;1058;-73
2023/01/06 00:23:45;;;;;;;11.07;6.70;;;;;;;10.07;90.03;100112.00;344052;28;1684;-73
2023/01/06 00:23:57;;;;;;;12.88;6.88;;;;;;;10.14;89.49;100110.13;343611;28;1227;-73
2023/01/06 00:24:09;;;;;;;12.43;6.93;;;;;;;10.13;89.16;100111.88;343518;28;1348;-73
2023/01/06 00:24:21;;;;;;;11.98;6.72;;;;;;;10.15;88.81;100109.25;343291;28;1801;-73
2023/01/06 00:24:33;;;;;;;11.07;6.85;;;;;;;10.14;88.09;100113.59;341635;28;1585;-73
2023/01/06 00:24:45;;;;;;;11.23;6.70;;;;;;;10.12;87.66;100114.50;343434;28;1068;-73
2023/01/06 00:24:57;;;;;;;11.65;6.97;;;;;;;10.13;87.82;100113.63;343898;28;1186;-73
2023/01/06 00:25:10;;;;;;;12.25;6.97;;;;;;;10.19;87.65;100108.28;343538;28;1257;-73
2023/01/06 00:25:23;;;;;;;11.25;6.55;;;;;;;10.20;87.36;100112.56;342464;28;1234;-73
2023/01/06 00:25:38;;;;;;;11.32;6.53;;;;;;;10.16;86.48;100105.72;342126;28;2080;-73
2023/01/06 00:25:50;;;;;;;11.50;6.88;;;;;;;10.18;86.57;100109.16;342888;28;1578;-73
2023/01/06 00:26:04;;;;;;;11.50;6.70;;;;;;;10.19;86.29;100105.69;341184;29;1138;-73
2023/01/06 00:26:16;;;;;;;12.50;6.40;;;;;;;10.08;85.92;100112.84;341986;28;1346;-73
2023/01/06 00:26:28;;;;;;;12.18;6.28;;;;;;;10.06;86.69;100112.03;343303;28;1052;-73
2023/01/06 00:26:40;;;;;;;11.68;6.63;;;;;;;10.02;86.59;100108.69;344575;28;1064;-73
2023/01/06 00:26:52;;;;;;;12.38;6.68;;;;;;;10.06;86.68;100109.44;344446;28;1241;-73
2023/01/06 00:27:04;;;;;;;12.82;6.72;;;;;;;10.03;86.59;100115.56;344716;28;1277;-73
2023/01/06 00:27:16;;;;;;;10.27;6.43;;;;;;;9.90;86.90;100104.63;344556;28;1359;-73
2023/01/06 00:27:30;;;;;;;10.52;6.35;;;;;;;9.82;87.45;100109.13;344645;28;1082;-73
2023/01/06 00:27:42;;;;;;;11.07;6.57;;;;;;;9.75;88.92;100115.31;344024;28;1988;-73
2023/01/06 00:27:54;;;;;;;11.07;6.70;;;;;;;9.84;89.38;100109.94;344486;28;1784;-73
2023/01/06 00:28:06;;;;;;;11.13;6.88;;;;;;;9.87;89.48;100109.88;345380;28;1181;-73
2023/01/06 00:28:18;;;;;;;10.55;6.88;;;;;;;9.96;89.50;100107.06;346211;28;1797;-73
2023/01/06 00:28:31;;;;;;;10.98;7.10;;;;;;;10.03;89.81;100105.19;344572;28;1210;-73
2023/01/06 00:28:45;;;;;;;11.30;7.43;;;;;;;10.07;90.03;100114.59;344602;28;986;-73
2023/01/06 00:28:57;;;;;;;11.95;8.43;;;;;;;10.08;90.24;100107.66;344868;28;1064;-73
2023/01/06 00:29:09;;;;;;;13.82;9.75;;;;;;;10.11;90.68;100107.59;344028;28;1099;-73
2023/01/06 00:29:21;;;;;;;14.82;9.23;;;;;;;10.20;90.69;100113.44;344696;28;1396;-73
2023/01/06 00:29:34;;;;;;;14.50;9.43;;;;;;;10.24;90.68;100103.84;344631;28;1184;-73
2023/01/06 00:29:48;;;;;;;13.93;10.00;;;;;;;10.30;90.78;100103.72;344701;28;1013;-73
2023/01/06 00:30:00;;;;;;;13.52;10.80;;;;;;;10.33;90.62;100103.63;344911;28;1184;-73
2023/01/06 00:30:15;;;;;;;11.88;9.63;;;;;;;10.37;90.67;100101.81;344816;28;1261;-73
2023/01/06 00:30:27;;;;;;;11.52;9.05;;;;;;;10.41;90.61;100111.25;345003;28;1161;-73
2023/01/06 00:30:39;;;;;;;11.90;8.63;;;;;;;10.43;90.28;100109.47;344758;28;2212;-73
2023/01/06 00:30:51;;;;;;;11.27;7.90;;;;;;;10.47;90.32;100108.50;346343;28;1079;-73
2023/01/06 00:31:09;;;;;;;10.25;7.45;;;;;;;10.48;90.27;100114.53;346342;28;1078;-73
2023/01/06 00:31:22;;;;;;;10.35;8.38;;;;;;;10.53;90.51;100104.88;346121;28;1326;-73
2023/01/06 00:31:36;;;;;;;12.50;9.40;;;;;;;10.60;90.36;100098.63;346064;28;1003;-73
2023/01/06 00:31:48;;;;;;;11.70;9.07;;;;;;;10.65;90.33;100099.38;345796;28;1525;-73
2023/01/06 00:32:00;;;;;;;8.80;7.30;;;;;;;10.65;90.03;100104.56;346193;28;1242;-73
2023/01/06 00:32:12;;;;;;;8.30;6.07;;;;;;;10.58;90.24;100096.09;346158;28;1196;-73
2023/01/06 00:32:24;;;;;;;9.90;6.70;;;;;;;10.54;89.85;100101.38;345091;28;1304;-73
2023/01/06 00:32:39;;;;;;;11.38;7.80;;;;;;;10.54;89.96;100102.25;344866;28;1079;-73
2023/01/06 00:32:51;;;;;;;11.77;8.30;;;;;;;10.57;90.28;100098.72;345175;28;1113;-73
2023/01/06 00:33:03;;;;;;;10.32;8.10;;;;;;;10.55;90.34;100103.09;343603;28;1219;-73
2023/01/06 00:33:15;;;;;;;8.70;7.35;;;;;;;10.49;90.48;100108.47;342061;28;1262;-73
2023/01/06 00:33:27;;;;;;;8.68;7.10;;;;;;;10.45;90.58;100104.22;343258;28;1297;-73
2023/01/06 00:33:41;;;;;;;10.32;7.80;;;;;;;10.44;90.50;100110.31;343341;28;1343;-73
2023/01/06 00:33:57;;;;;;;10.02;8.00;;;;;;;10.50;90.80;100097.16;343376;28;1107;-73
2023/01/06 00:34:10;;;;;;;9.35;6.97;;;;;;;10.48;91.18;100097.19;343472;28;1654;-73
2023/01/06 00:34:22;;;;;;;9.27;5.85;;;;;;;10.50;90.85;100094.56;343367;28;1387;-73
2023/01/06 00:34:34;;;;;;;9.20;6.43;;;;;;;10.49;91.32;100095.47;342499;28;1597;-73
2023/01/06 00:34:46;;;;;;;9.38;6.60;;;;;;;10.47;91.25;100103.28;343183;28;1032;-73
2023/01/06 00:34:58;;;;;;;8.95;5.88;;;;;;;10.51;91.18;100101.47;343204;28;1179;-73
2023/01/06 00:35:10;;;;;;;9.98;5.60;;;;;;;10.56;91.13;100104.78;343264;28;1016;-73
2023/01/06 00:35:22;;;;;;;8.65;4.78;;;;;;;10.62;91.11;100096.00;345370;28;1322;-73
2023/01/06 00:35:34;;;;;;;7.85;4.35;;;;;;;10.67;91.05;100097.59;344965;28;1038;-73
2023/01/06 00:35:46;;;;;;;6.72;3.92;;;;;;;10.73;90.99;100093.97;344621;28;1169;-73
2023/01/06 00:35:58;;;;;;;5.97;3.70;;;;;;;10.79;90.67;100097.25;344622;28;1741;-73
2023/01/06 00:36:12;;;;;;;6.30;3.60;;;;;;;10.85;90.70;100098.00;343719;28;1775;-73
2023/01/06 00:36:24;;;;;;;6.10;3.70;;;;;;;10.89;90.35;100097.88;342119;28;2291;-73
2023/01/06 00:36:36;;;;;;;6.35;3.85;;;;;;;10.90;90.39;100098.72;343225;28;1028;-73
2023/01/06 00:36:48;;;;;;;6.53;3.72;;;;;;;10.94;90.13;100097.75;342412;28;1066;-73
2023/01/06 00:37:00;;;;;;;6.78;3.80;;;;;;;10.99;90.16;100103.69;342229;28;1246;-73
2023/01/06 00:37:12;;;;;;;5.45;3.58;;;;;;;11.02;90.17;100082.78;342041;28;1145;-73
2023/01/06 00:37:24;;;;;;;6.18;3.83;;;;;;;11.04;89.71;100091.41;342260;28;1251;-73
2023/01/06 00:37:36;;;;;;;6.28;4.07;;;;;;;11.06;89.70;100093.97;342828;28;1072;-73
2023/01/06 00:37:48;;;;;;;6.88;4.28;;;;;;;11.10;89.77;100091.22;342980;28;1344;-73
2023/01/06 00:38:00;;;;;;;6.15;3.97;;;;;;;11.13;89.27;100090.31;343487;28;1249;-73
2023/01/06 00:38:12;;;;;;;5.95;3.80;;;;;;;11.15;89.33;100088.53;341940;28;2122;-73
2023/01/06 00:38:24;;;;;;;5.30;3.70;;;;;;;11.14;89.40;100092.84;343367;28;1795;-73
2023/01/06 00:38:37;;;;;;;6.15;4.20;;;;;;;11.17;89.51;100092.78;344386;28;1858;-73
2023/01/06 00:38:50;;;;;;;7.28;5.00;;;;;;;11.19;89.40;100085.78;344553;28;1892;-73
2023/01/06 00:39:02;;;;;;;8.57;5.60;;;;;;;11.18;89.11;100094.47;343719;28;1203;-73
2023/01/06 00:39:14;;;;;;;8.68;6.60;;;;;;;11.17;89.10;100087.56;343694;28;1056;-73
2023/01/06 00:39:26;;;;;;;9.48;7.47;;;;;;;11.13;88.62;100096.38;345409;28;1071;-73
2023/01/06 00:39:38;;;;;;;10.70;8.48;;;;;;;11.17;89.06;100091.94;345254;28;2053;-73
2023/01/06 00:39:50;;;;;;;11.23;8.20;;;;;;;11.14;88.45;100085.03;344825;28;1028;-73
2023/01/06 00:40:02;;;;;;;9.50;7.60;;;;;;;11.15;88.73;100088.53;344409;28;1891;-73
2023/01/06 00:40:14;;;;;;;9.15;7.20;;;;;;;11.18;88.60;100089.25;344538;28;1127;-73
2023/01/06 00:40:26;;;;;;;9.95;7.40;;;;;;;11.23;88.53;100090.88;344836;28;1787;-73
2023/01/06 00:40:38;;;;;;;10.25;7.28;;;;;;;11.24;88.44;100087.41;346223;28;1095;-73
2023/01/06 00:40:50;;;;;;;8.35;6.10;;;;;;;11.26;88.35;100086.44;346060;28;1120;-73
2023/01/06 00:42:02;;;;;;;7.35;5.10;;;;;;;11.25;88.20;100089.97;346055;28;1313;-73
2023/01/06 00:42:23;;;;;;;7.68;5.45;;;;;;;11.34;88.05;100088.84;341954;28;1388;-73
2023/01/06 00:42:35;;;;;;;7.07;4.70;;;;;;;11.37;87.78;100092.22;340851;28;1815;-72
2023/01/06 00:42:47;;;;;;;7.97;4.40;;;;;;;11.41;87.56;100085.19;342061;28;1951;-72
2023/01/06 00:42:59;;;;;;;10.07;5.32;;;;;;;11.44;87.48;100090.28;342142;28;1109;-72
2023/01/06 00:43:11;;;;;;;10.52;5.80;;;;;;;11.45;87.47;100092.00;340581;28;1661;-72
2023/01/06 00:43:23;;;;;;;8.82;5.75;;;;;;;11.45;86.68;100089.41;340925;29;1347;-72
2023/01/06 00:43:35;;;;;;;8.55;5.53;;;;;;;11.47;86.64;100082.38;340616;29;1305;-72
2023/01/06 00:43:47;;;;;;;9.10;5.80;;;;;;;11.49;86.67;100087.53;343656;28;1906;-72
2023/01/06 00:44:00;;;;;;;9.68;5.82;;;;;;;11.51;86.29;100085.72;342263;28;1139;-72
2023/01/06 00:44:12;;;;;;;10.45;6.18;;;;;;;11.52;86.40;100087.44;341961;28;1213;-72
2023/01/06 00:44:24;;;;;;;9.85;6.03;;;;;;;11.56;86.31;100083.84;341405;28;1287;-72
2023/01/06 00:44:37;;;;;;;8.70;5.38;;;;;;;11.57;85.84;100080.38;341051;28;1887;-72
2023/01/06 00:44:49;;;;;;;9.13;5.10;;;;;;;11.60;86.21;100086.31;340755;28;2107;-72
2023/01/06 00:45:04;;;;;;;10.25;5.80;;;;;;;11.62;85.64;100093.25;341165;28;1986;-72
2023/01/06 00:45:16;;;;;;;9.35;6.20;;;;;;;11.62;85.43;100088.03;342559;28;1824;-72
2023/01/06 00:45:29;;;;;;;10.48;6.18;;;;;;;11.63;85.40;100080.19;343674;28;1714;-72
2023/01/06 00:45:41;;;;;;;9.30;5.45;;;;;;;11.63;85.45;100084.53;343449;28;1059;-72
2023/01/06 00:45:53;;;;;;;8.13;5.32;;;;;;;11.65;85.46;100082.72;343516;28;1131;-72
2023/01/06 00:46:05;;;;;;;7.72;5.45;;;;;;;11.67;85.38;100091.34;344008;28;1939;-73
2023/01/06 00:46:17;;;;;;;6.93;4.75;;;;;;;11.65;85.84;100083.59;344082;28;1455;-73
2023/01/06 00:46:30;;;;;;;8.73;4.55;;;;;;;11.67;85.38;100086.13;344798;28;1903;-73
2023/01/06 00:46:42;;;;;;;11.02;4.93;;;;;;;11.68;85.78;100083.50;346262;28;1061;-73
2023/01/06 00:46:54;;;;;;;10.65;5.57;;;;;;;11.71;85.74;100082.53;345206;28;1989;-73
2023/01/06 00:47:09;;;;;;;9.38;5.40;;;;;;;11.71;85.22;100087.75;345044;28;1922;-73
2023/01/06 00:47:20;;;;;;;9.38;5.25;;;;;;;11.71;85.49;100085.13;345528;28;1739;-73
2023/01/06 00:47:32;;;;;;;9.30;5.33;;;;;;;11.66;85.05;100085.28;346287;28;1303;-73
2023/01/06 00:47:44;;;;;;;8.07;4.72;;;;;;;11.64;84.96;100086.25;345809;28;1176;-73
2023/01/06 00:47:56;;;;;;;7.43;4.57;;;;;;;11.66;84.99;100081.84;344928;28;1023;-72
2023/01/06 00:48:08;;;;;;;7.93;4.53;;;;;;;11.67;85.41;100081.81;342878;28;1773;-72
2023/01/06 00:48:20;;;;;;;8.57;4.70;;;;;;;11.69;85.15;100073.91;343431;28;1298;-72
2023/01/06 00:48:32;;;;;;;9.00;5.20;;;;;;;11.71;85.31;100087.75;342836;28;1828;-72
2023/01/06 00:48:47;;;;;;;8.27;5.20;;;;;;;11.70;85.17;100086.91;343678;28;1121;-72
2023/01/06 00:49:16;;;;;;;6.45;3.50;;;;;;;11.69;85.20;100080.00;343904;28;1333;-72
2023/01/06 00:49:28;;;;;;;5.90;3.55;;;;;;;11.65;85.03;100086.19;343469;28;1104;-72
2023/01/06 00:49:43;;;;;;;7.40;4.55;;;;;;;11.68;85.16;100085.25;343521;28;1068;-72
2023/01/06 00:49:55;;;;;;;8.70;4.70;;;;;;;11.71;85.13;100087.75;342396;28;1044;-72
2023/01/06 00:50:08;;;;;;;8.23;4.03;;;;;;;11.72;84.99;100079.88;342222;28;1066;-72
2023/01/06 00:50:20;;;;;;;6.95;3.75;;;;;;;11.75;85.34;100089.34;342765;28;1101;-72
2023/01/06 00:50:32;;;;;;;7.50;3.80;;;;;;;11.77;85.04;100087.56;343335;28;1051;-72
2023/01/06 00:50:44;;;;;;;9.77;4.15;;;;;;;11.77;85.19;100083.22;342931;28;2403;-72
2023/01/06 00:51:00;;;;;;;11.27;5.47;;;;;;;11.80;84.94;100082.25;343076;28;1130;-72
2023/01/06 00:51:14;;;;;;;14.80;6.95;;;;;;;11.82;84.54;100085.69;343483;28;1074;-72
2023/01/06 00:51:27;;;;;;;12.68;5.97;;;;;;;11.84;84.59;100083.88;343325;28;1226;-72
2023/01/06 00:51:39;;;;;;;9.35;4.85;;;;;;;11.85;84.80;100084.72;342891;28;1546;-72
2023/01/06 00:51:51;;;;;;;8.60;4.90;;;;;;;11.86;84.65;100082.06;343301;28;1899;-72
2023/01/06 00:52:03;;;;;;;9.95;5.38;;;;;;;11.86;84.28;100082.06;344500;28;1055;-72
2023/01/06 00:52:15;;;;;;;9.90;5.60;;;;;;;11.89;84.40;100087.25;346255;28;1300;-72
2023/01/06 00:52:27;;;;;;;8.93;5.28;;;;;;;11.89;84.36;100092.44;344950;28;1968;-72
2023/01/06 00:52:39;;;;;;;9.43;5.78;;;;;;;11.89;84.15;100086.34;343230;28;940;-72
2023/01/06 00:52:52;;;;;;;10.23;5.70;;;;;;;11.90;83.70;100083.72;343966;28;1832;-72
2023/01/06 00:53:04;;;;;;;10.80;5.35;;;;;;;11.90;84.17;100086.31;344843;28;1026;-72
2023/01/06 00:53:16;;;;;;;10.45;5.40;;;;;;;11.90;83.95;100086.31;342762;28;1707;-72
2023/01/06 00:53:28;;;;;;;9.85;5.50;;;;;;;11.91;83.75;100081.97;343209;28;1583;-72
2023/01/06 00:53:40;;;;;;;8.73;5.55;;;;;;;11.93;83.84;100082.75;342818;28;2214;-72
2023/01/06 00:53:52;;;;;;;8.85;5.57;;;;;;;11.93;83.98;100083.63;343214;28;1829;-72
2023/01/06 00:54:09;;;;;;;12.07;6.35;;;;;;;11.92;83.89;100086.28;343333;28;1195;-72
2023/01/06 00:54:21;;;;;;;13.35;6.53;;;;;;;11.92;83.71;100087.13;342721;28;1828;-72
2023/01/06 00:54:35;;;;;;;10.10;5.72;;;;;;;11.92;83.95;100081.91;341443;28;1702;-72
2023/01/06 00:54:47;;;;;;;9.05;5.40;;;;;;;11.92;83.66;100092.34;343081;28;1223;-72
2023/01/06 00:54:59;;;;;;;8.80;5.22;;;;;;;11.92;83.81;100084.53;342191;28;1189;-72
2023/01/06 00:55:11;;;;;;;8.43;5.03;;;;;;;11.93;84.06;100086.25;342197;28;1767;-72
2023/01/06 00:55:23;;;;;;;8.10;4.78;;;;;;;11.93;83.71;100082.75;342895;28;1312;-72
2023/01/06 00:55:35;;;;;;;8.10;4.57;;;;;;;11.93;83.81;100088.84;343432;28;1063;-72
2023/01/06 00:55:47;;;;;;;9.05;4.70;;;;;;;11.93;83.97;100083.63;341891;28;1926;-72
2023/01/06 00:56:00;;;;;;;9.15;4.70;;;;;;;11.92;84.33;100081.91;342334;28;1885;-72
2023/01/06 00:56:12;;;;;;;8.77;4.38;;;;;;;11.90;84.00;100094.13;343113;28;1872;-72
2023/01/06 00:56:24;;;;;;;8.02;4.35;;;;;;;11.87;83.86;100090.72;343513;28;1374;-72
2023/01/06 00:56:37;;;;;;;8.10;4.70;;;;;;;11.86;83.92;100092.50;343351;28;1649;-72
2023/01/06 00:56:52;;;;;;;7.78;4.72;;;;;;;11.84;83.82;100094.28;343314;28;1880;-72
2023/01/06 00:57:06;;;;;;;8.77;4.70;;;;;;;11.82;83.91;100090.03;344203;28;1115;-72
2023/01/06 00:57:18;;;;;;;8.73;4.90;;;;;;;11.80;84.00;100090.09;344987;28;1346;-72
2023/01/06 00:57:30;;;;;;;7.07;4.68;;;;;;;11.77;84.33;100093.63;343357;28;1060;-72
2023/01/06 00:57:42;;;;;;;6.97;4.32;;;;;;;11.70;84.18;100091.25;343499;28;1288;-72
2023/01/06 00:57:54;;;;;;;7.30;4.35;;;;;;;11.67;84.42;100091.34;342393;28;1915;-72
2023/01/06 00:58:06;;;;;;;7.90;4.97;;;;;;;11.65;84.62;100093.13;344056;28;1745;-72
2023/01/06 00:58:18;;;;;;;7.88;5.53;;;;;;;11.65;84.84;100100.94;344798;28;1242;-72
2023/01/06 00:58:31;;;;;;;7.70;5.43;;;;;;;11.57;84.88;100093.38;344761;28;1298;-72
2023/01/06 00:58:43;;;;;;;6.50;4.45;;;;;;;11.57;84.95;100091.63;344695;28;1185;-73
2023/01/06 00:58:55;;;;;;;5.75;3.80;;;;;;;11.54;85.65;100096.91;344246;28;1848;-72
2023/01/06 00:59:08;;;;;;;5.32;3.45;;;;;;;11.55;85.53;100098.63;344536;28;1115;-72
2023/01/06 00:59:22;;;;;;;5.25;3.20;;;;;;;11.51;85.44;100099.63;344703;28;1617;-72
2023/01/06 00:59:34;;;;;;;5.22;3.10;;;;;;;11.59;85.57;100099.41;345770;28;1253;-72
2023/01/06 00:59:46;;;;;;;4.85;2.95;;;;;;;11.58;85.63;100093.31;346037;28;1170;-72
2023/01/06 00:59:58;;;;;;;4.75;2.90;;;;;;;11.56;85.75;100097.72;344164;28;2125;-72
2023/01/06 01:00:10;;;;;;;4.43;2.83;;;;;;;11.51;85.62;100097.03;343936;28;1889;-72
2023/01/06 01:00:22;;;;;;;4.63;2.83;;;;;;;11.52;86.01;100093.50;343580;28;2093;-72
2023/01/06 01:00:34;;;;;;;4.70;2.88;;;;;;;11.52;85.72;100092.66;343602;28;1226;-72
2023/01/06 01:00:46;;;;;;;5.20;3.50;;;;;;;11.53;85.81;100095.22;344942;28;1300;-72
2023/01/06 01:01:06;;;;;;;5.55;3.88;;;;;;;11.47;86.16;100095.41;344926;28;1109;-72